Chemical Pioneer — KAFO — position and weather

sailwx.info

Track history (hours):
 
Tides and Currents Weather Stations Pressure Air Temp Water Temp Dewpoint Dewpoint Depression Visibility Wind Speed Wind Dir Waves Ship Positions

Chemical Pioneer

More information available from US FCC via Universal Licensing System and Coast Guard Vessel Documentation Center.

Last reported at 2014-Aug-24 06:33 UTC. Time now 2014-Aug-28 09:28 UTC.
Position N 26°45' W 079°43'.

Type: Tanker. MMSI: 366032000.

Date/timePositionNaut miles runAvg speedWind from/ knotsBaromVisibWave heightAir tempDewpointWater temp
2014-Aug-24 06:33N 26°45' W 079°43'1919.3
2014-Aug-24 05:33N 26°26' W 079°46'1818.5
2014-Aug-24 04:33N 26°08' W 079°49'1818.2
2014-Aug-24 03:33N 25°50' W 079°51'1918.1
2014-Aug-24 02:31N 25°31' W 079°54'3917.1
2014-Aug-24 00:15N 24°56' W 080°12'  
2014-Aug-17 18:34N 29°44' W 095°12'3 3.0
2014-Aug-17 17:34N 29°44' W 095°16'0 0.0
2014-Aug-17 16:31N 29°44' W 095°16'39853984.6
2014-Aug-17 15:31S 36°41' W 095°16'39853984.6
2014-Aug-17 14:31N 29°44' W 095°16'0 0.0
2014-Aug-17 13:28N 29°44' W 095°16'0 0.0
2014-Aug-17 12:31N 29°44' W 095°16'0 0.0
2014-Aug-17 11:31N 29°44' W 095°16'0 0.0
2014-Aug-17 10:31N 29°44' W 095°16'0 0.0
2014-Aug-17 09:31N 29°44' W 095°16'0 0.0
2014-Aug-17 08:31N 29°44' W 095°16'0 0.0
2014-Aug-17 07:31N 29°44' W 095°16'0 0.0
2014-Aug-17 06:31N 29°44' W 095°16'0 0.0
2014-Aug-17 05:31N 29°44' W 095°16'0 0.0
2014-Aug-17 04:31N 29°44' W 095°16'0 0.0
2014-Aug-17 03:31N 29°44' W 095°16'0 0.0
2014-Aug-17 02:31N 29°44' W 095°16'0 0.0
2014-Aug-17 01:31N 29°44' W 095°16'0 0.0
2014-Aug-17 00:31N 29°44' W 095°16'0 0.0
2014-Aug-16 23:31N 29°44' W 095°16'0 0.0
2014-Aug-16 22:31N 29°44' W 095°16'0 0.0
2014-Aug-16 21:28N 29°44' W 095°16'0 0.0
2014-Aug-16 20:31N 29°44' W 095°16'0 0.0
2014-Aug-16 19:31N 29°44' W 095°16'0 0.0
2014-Aug-16 18:28N 29°44' W 095°16'0 0.0
2014-Aug-16 17:31N 29°44' W 095°16'0 0.0
2014-Aug-16 16:28N 29°44' W 095°16'0 0.0
2014-Aug-16 15:33N 29°44' W 095°16'0 0.0
2014-Aug-16 14:33N 29°44' W 095°16'0 0.1
2014-Aug-16 13:33N 29°44' W 095°16'2 2.0
2014-Aug-16 12:33N 29°44' W 095°14'6 5.6
2014-Aug-16 11:33N 29°44' W 095°07'6 5.5
2014-Aug-16 10:33N 29°43' W 095°01'1211.6
2014-Aug-16 09:33N 29°33' W 094°54'1413.9
2014-Aug-16 08:33N 29°21' W 094°46'1 0.6
2014-Aug-16 06:32N 29°21' W 094°45'6 5.7
2014-Aug-16 05:33N 29°22' W 094°51'4 0.2
2014-Aug-15 11:14N 29°22' W 094°55'1 1.9
2014-Aug-15 10:33N 29°22' W 094°54'11 9.2
2014-Aug-15 09:22N 29°20' W 094°41'  
Track history (hours):
 
Tides and Currents Weather Stations Pressure Air Temp Water Temp Dewpoint Dewpoint Depression Visibility Wind Speed Wind Dir Waves Ship Positions

Chemical Pioneer

More information available from US FCC via Universal Licensing System and Coast Guard Vessel Documentation Center.

Last reported at 2014-Aug-24 06:33 UTC. Time now 2014-Aug-28 09:28 UTC.
Position N 26°45' W 079°43'.

Type: Tanker. MMSI: 366032000.

Date/timePositionNaut miles runAvg speedWind from/ knotsBaromVisibWave heightAir tempDewpointWater temp
2014-Aug-24 06:33N 26°45' W 079°43'1919.3
2014-Aug-24 05:33N 26°26' W 079°46'1818.5
2014-Aug-24 04:33N 26°08' W 079°49'1818.2
2014-Aug-24 03:33N 25°50' W 079°51'1918.1
2014-Aug-24 02:31N 25°31' W 079°54'3917.1
2014-Aug-24 00:15N 24°56' W 080°12'  
2014-Aug-17 18:34N 29°44' W 095°12'3 3.0
2014-Aug-17 17:34N 29°44' W 095°16'0 0.0
2014-Aug-17 16:31N 29°44' W 095°16'39853984.6
2014-Aug-17 15:31S 36°41' W 095°16'39853984.6
2014-Aug-17 14:31N 29°44' W 095°16'0 0.0
2014-Aug-17 13:28N 29°44' W 095°16'0 0.0
2014-Aug-17 12:31N 29°44' W 095°16'0 0.0
2014-Aug-17 11:31N 29°44' W 095°16'0 0.0
2014-Aug-17 10:31N 29°44' W 095°16'0 0.0
2014-Aug-17 09:31N 29°44' W 095°16'0 0.0
2014-Aug-17 08:31N 29°44' W 095°16'0 0.0
2014-Aug-17 07:31N 29°44' W 095°16'0 0.0
2014-Aug-17 06:31N 29°44' W 095°16'0 0.0
2014-Aug-17 05:31N 29°44' W 095°16'0 0.0
2014-Aug-17 04:31N 29°44' W 095°16'0 0.0
2014-Aug-17 03:31N 29°44' W 095°16'0 0.0
2014-Aug-17 02:31N 29°44' W 095°16'0 0.0
2014-Aug-17 01:31N 29°44' W 095°16'0 0.0
2014-Aug-17 00:31N 29°44' W 095°16'0 0.0
2014-Aug-16 23:31N 29°44' W 095°16'0 0.0
2014-Aug-16 22:31N 29°44' W 095°16'0 0.0
2014-Aug-16 21:28N 29°44' W 095°16'0 0.0
2014-Aug-16 20:31N 29°44' W 095°16'0 0.0
2014-Aug-16 19:31N 29°44' W 095°16'0 0.0
2014-Aug-16 18:28N 29°44' W 095°16'0 0.0
2014-Aug-16 17:31N 29°44' W 095°16'0 0.0
2014-Aug-16 16:28N 29°44' W 095°16'0 0.0
2014-Aug-16 15:33N 29°44' W 095°16'0 0.0
2014-Aug-16 14:33N 29°44' W 095°16'0 0.1
2014-Aug-16 13:33N 29°44' W 095°16'2 2.0
2014-Aug-16 12:33N 29°44' W 095°14'6 5.6
2014-Aug-16 11:33N 29°44' W 095°07'6 5.5
2014-Aug-16 10:33N 29°43' W 095°01'1211.6
2014-Aug-16 09:33N 29°33' W 094°54'1413.9
2014-Aug-16 08:33N 29°21' W 094°46'1 0.6
2014-Aug-16 06:32N 29°21' W 094°45'6 5.7
2014-Aug-16 05:33N 29°22' W 094°51'4 0.2
2014-Aug-15 11:14N 29°22' W 094°55'1 1.9
2014-Aug-15 10:33N 29°22' W 094°54'11 9.2
2014-Aug-15 09:22N 29°20' W 094°41'  

Dump ship's entire track history